Time;durP1;ratioP1;P1;durP2;ratioP2;P2;SDS_P1;SDS_P2;PMS_P1;PMS_P2;Temp;Humidity;BMP_temperature;BMP_pressure;BME280_temperature;BME280_humidity;BME280_pressure;Samples;Min_cycle;Max_cycle;Signal;HPM_P1;HPM_P2
2023/01/04 00:02:05;;;;;;;5.60;2.75;;;;;;;12.39;75.98;101711.44;4985392;28;20062;-39
2023/01/04 00:04:30;;;;;;;3.83;2.65;;;;;;;12.24;76.25;101719.00;4986494;28;20058;-41
2023/01/04 00:06:55;;;;;;;4.85;2.75;;;;;;;12.10;77.03;101726.53;4983079;28;20038;-46
2023/01/04 00:09:21;;;;;;;5.50;2.80;;;;;;;12.12;77.08;101711.78;4986644;28;20038;-41
2023/01/04 00:11:46;;;;;;;4.97;2.80;;;;;;;11.88;76.92;101709.56;4981699;28;20096;-42
2023/01/04 00:14:11;;;;;;;4.25;2.63;;;;;;;12.02;77.50;101695.03;4985993;28;20085;-40
2023/01/04 00:16:37;;;;;;;3.97;2.60;;;;;;;12.27;76.65;101687.66;4982061;28;20050;-42
2023/01/04 00:19:02;;;;;;;4.35;2.63;;;;;;;12.00;77.45;101688.00;4985924;28;20597;-43
2023/01/04 00:21:29;;;;;;;5.30;2.67;;;;;;;12.06;77.06;101677.69;4985094;28;20457;-42
2023/01/04 00:23:58;;;;;;;4.35;2.67;;;;;;;12.20;77.54;101677.09;4980581;28;20045;-43
2023/01/04 00:26:29;;;;;;;5.10;2.80;;;;;;;12.20;77.19;101673.59;4985867;28;20470;-41
2023/01/04 00:29:00;;;;;;;5.15;2.70;;;;;;;12.14;77.19;101684.81;4982183;28;20034;-42
2023/01/04 00:31:26;;;;;;;4.35;2.63;;;;;;;12.12;77.98;101670.84;4988177;28;20038;-44
2023/01/04 00:33:53;;;;;;;4.30;2.85;;;;;;;12.06;77.92;101662.00;4992082;28;20084;-40
2023/01/04 00:36:19;;;;;;;4.68;2.90;;;;;;;11.90;78.43;101658.19;4990664;28;20597;-41
2023/01/04 00:38:44;;;;;;;4.20;3.08;;;;;;;12.02;78.40;101666.28;4982446;28;20125;-41
2023/01/04 00:41:11;;;;;;;4.85;3.25;;;;;;;12.11;78.22;101657.75;4985518;28;20035;-44
2023/01/04 00:43:37;;;;;;;5.35;3.05;;;;;;;12.35;77.60;101644.25;4982073;28;20034;-41
2023/01/04 00:46:05;;;;;;;6.47;3.70;;;;;;;12.30;77.48;101641.56;4985617;28;20034;-43
2023/01/04 00:48:31;;;;;;;9.57;4.30;;;;;;;12.17;78.40;101622.16;4981863;28;20034;-39
2023/01/04 00:50:56;;;;;;;6.18;4.20;;;;;;;12.38;77.59;101632.09;4985673;28;20085;-43
2023/01/04 00:53:22;;;;;;;6.00;4.40;;;;;;;12.27;77.89;101622.31;4984646;28;20062;-42
2023/01/04 00:55:47;;;;;;;7.10;4.53;;;;;;;12.03;79.35;101625.34;4982302;28;20533;-45
2023/01/04 00:58:12;;;;;;;10.90;4.80;;;;;;;12.15;78.88;101629.06;4985888;28;20042;-43
2023/01/04 01:00:39;;;;;;;6.22;4.38;;;;;;;12.42;77.78;101612.13;4980838;28;20105;-43
2023/01/04 01:03:04;;;;;;;7.97;4.65;;;;;;;12.47;77.47;101610.47;4985268;28;20553;-42
2023/01/04 01:05:31;;;;;;;7.32;4.53;;;;;;;12.18;78.95;101603.00;4983566;28;20065;-40
2023/01/04 01:07:56;;;;;;;5.97;3.80;;;;;;;11.92;80.37;101617.31;4980419;28;20035;-42
2023/01/04 01:10:22;;;;;;;8.13;4.07;;;;;;;12.38;78.87;101616.41;4984783;28;20034;-40
2023/01/04 01:12:47;;;;;;;6.10;3.88;;;;;;;12.41;78.93;101602.53;4982043;28;20192;-44
2023/01/04 01:15:12;;;;;;;6.93;3.90;;;;;;;12.40;79.08;101609.47;4984043;28;20038;-44
2023/01/04 01:17:38;;;;;;;9.70;3.95;;;;;;;12.42;78.53;101614.75;4980844;28;20089;-43
2023/01/04 01:20:04;;;;;;;5.45;3.70;;;;;;;12.52;78.35;101600.97;4984590;28;20053;-41
2023/01/04 01:22:31;;;;;;;7.80;3.90;;;;;;;12.29;79.06;101605.81;4984164;28;20034;-45
2023/01/04 01:24:56;;;;;;;6.97;3.88;;;;;;;12.53;78.50;101603.63;4981069;28;20038;-41
2023/01/04 01:27:22;;;;;;;6.75;3.83;;;;;;;12.28;79.71;101611.00;4984735;28;20050;-46
2023/01/04 01:29:47;;;;;;;5.15;3.75;;;;;;;12.83;78.07;101611.09;4979498;28;20632;-46
2023/01/04 01:32:12;;;;;;;7.45;4.10;;;;;;;12.67;78.41;101603.84;4984080;28;20057;-41
2023/01/04 01:34:38;;;;;;;6.15;4.00;;;;;;;12.73;78.43;101598.72;4981601;28;20038;-42
2023/01/04 01:37:03;;;;;;;5.32;3.97;;;;;;;12.63;78.75;101611.59;4987781;28;20035;-41
2023/01/04 01:39:28;;;;;;;6.05;3.88;;;;;;;13.02;77.23;101604.41;4987267;28;20031;-45
2023/01/04 01:41:54;;;;;;;7.72;4.13;;;;;;;12.89;77.73;101592.84;4984069;28;20475;-42
2023/01/04 01:44:41;;;;;;;7.85;4.47;;;;;;;12.58;78.70;101606.31;4988041;28;20449;-47
2023/01/04 01:47:13;;;;;;;5.90;4.18;;;;;;;12.65;78.62;101596.81;4984295;28;20050;-43
2023/01/04 01:49:41;;;;;;;7.25;4.22;;;;;;;12.41;79.83;101594.69;4982586;28;20046;-43
2023/01/04 01:52:17;;;;;;;6.53;4.25;;;;;;;12.75;79.28;101594.38;4983512;28;20383;-42
2023/01/04 01:54:50;;;;;;;7.38;3.97;;;;;;;12.98;78.19;101587.78;4980313;28;20038;-42
2023/01/04 01:57:21;;;;;;;7.85;4.57;;;;;;;12.79;78.76;101587.47;4984288;28;20042;-46
2023/01/04 01:59:48;;;;;;;6.47;4.47;;;;;;;13.12;77.98;101590.59;4981288;28;20038;-42
2023/01/04 02:02:13;;;;;;;7.03;4.70;;;;;;;12.90;78.50;101584.16;4987101;28;20045;-42
2023/01/04 02:04:43;;;;;;;6.03;4.57;;;;;;;12.54;79.01;101594.03;4985162;28;20046;-43
2023/01/04 02:07:12;;;;;;;6.40;4.70;;;;;;;12.53;79.65;101589.66;4985597;28;20030;-41
2023/01/04 02:09:38;;;;;;;8.80;4.85;;;;;;;13.01;78.61;101598.28;4980308;28;20026;-42
2023/01/04 02:12:04;;;;;;;8.68;5.22;;;;;;;13.02;78.00;101581.72;4983126;28;20042;-40
2023/01/04 02:14:29;;;;;;;5.72;4.93;;;;;;;13.37;77.45;101608.44;4984156;28;20026;-44
2023/01/04 02:16:55;;;;;;;8.20;5.00;;;;;;;12.88;78.25;101595.44;4980074;28;20038;-44
2023/01/04 02:19:51;;;;;;;9.20;5.22;;;;;;;13.34;77.58;101607.53;4983602;28;20407;-45
2023/01/04 02:22:41;;;;;;;6.50;4.72;;;;;;;13.39;76.99;101606.72;4979646;28;20045;-42
2023/01/04 02:25:32;;;;;;;9.27;5.20;;;;;;;12.95;78.95;101606.03;4980356;28;20125;-43
2023/01/04 02:28:00;;;;;;;6.55;5.28;;;;;;;13.10;77.87;101596.66;4985595;28;20116;-45
2023/01/04 02:30:35;;;;;;;7.40;5.10;;;;;;;13.01;78.87;101598.28;4990403;28;20057;-45
2023/01/04 02:33:09;;;;;;;;;;;;;;;13.27;78.33;101596.06;4988017;28;20045;-43
2023/01/04 02:35:37;;;;;;;8.52;5.72;;;;;;;13.24;78.42;101587.28;4983029;28;19952;-42
2023/01/04 02:38:47;;;;;;;8.63;5.68;;;;;;;13.32;79.14;101583.91;4986861;28;20493;-42
2023/01/04 02:41:48;;;;;;;8.73;5.38;;;;;;;13.36;78.57;101584.81;4976180;28;20530;-42
2023/01/04 02:50:31;;;;;;;7.53;5.18;;;;;;;13.42;78.11;101581.44;4979507;28;20041;-42
2023/01/04 02:53:04;;;;;;;7.75;5.70;;;;;;;13.37;78.04;101581.34;4980034;28;20061;-46
2023/01/04 02:55:43;;;;;;;9.07;5.88;;;;;;;13.46;78.38;101567.50;4983549;28;20034;-41
2023/01/04 02:58:32;;;;;;;8.10;6.05;;;;;;;13.37;78.82;101579.63;4978919;28;20101;-41
2023/01/04 03:07:56;;;;;;;7.32;5.82;;;;;;;13.48;78.31;101557.94;4979452;28;20129;-42
2023/01/04 03:10:32;;;;;;;7.40;5.63;;;;;;;13.26;78.56;101547.19;4977879;28;20418;-45
2023/01/04 03:13:16;;;;;;;7.20;6.07;;;;;;;13.57;77.83;101545.81;4979043;28;20027;-43
2023/01/04 03:15:47;;;;;;;8.68;6.20;;;;;;;13.20;79.57;101556.69;4979041;28;20088;-45
2023/01/04 03:18:18;;;;;;;7.25;5.75;;;;;;;13.35;78.32;101546.44;5008302;22;20050;-42
2023/01/04 03:20:47;;;;;;;7.30;5.85;;;;;;;13.10;79.71;101549.53;4998623;28;20044;-44
2023/01/04 03:37:24;;;;;;;10.23;6.43;;;;;;;13.23;79.49;101523.59;4999015;28;20037;-40
2023/01/04 03:49:10;;;;;;;7.00;5.72;;;;;;;13.73;78.13;101524.16;4998929;28;20029;-45
2023/01/04 03:51:37;;;;;;;6.82;5.10;;;;;;;13.51;78.65;101510.81;4999023;28;20049;-42
2023/01/04 03:54:08;;;;;;;7.75;5.65;;;;;;;13.42;79.36;101519.44;5004004;28;20121;-39
2023/01/04 03:56:36;;;;;;;7.05;5.45;;;;;;;13.41;79.86;101515.06;5000571;28;20038;-44
2023/01/04 03:59:03;;;;;;;9.32;5.65;;;;;;;13.30;79.66;101517.53;5004011;28;20037;-44
2023/01/04 04:01:29;;;;;;;9.35;5.75;;;;;;;13.53;79.70;101506.47;5003092;28;20057;-46
2023/01/04 04:09:23;;;;;;;7.20;4.90;;;;;;;13.52;78.62;101495.13;5002968;28;20060;-39
2023/01/04 04:11:49;;;;;;;6.97;4.50;;;;;;;13.45;78.91;101480.19;4998403;28;20506;-43
2023/01/04 04:14:14;;;;;;;6.25;4.40;;;;;;;13.34;79.54;101487.94;5000811;28;20034;-39
2023/01/04 04:16:39;;;;;;;6.55;4.50;;;;;;;13.92;77.98;101471.94;4998312;28;20034;-39
2023/01/04 04:19:05;;;;;;;7.05;3.90;;;;;;;13.80;78.08;101475.31;5002412;28;20034;-39
2023/01/04 04:21:30;;;;;;;5.43;3.85;;;;;;;13.57;79.04;101469.84;5002474;28;20038;-40
2023/01/04 04:23:56;;;;;;;5.22;3.33;;;;;;;13.84;77.58;101474.50;5001833;28;20089;-43
2023/01/04 04:26:22;;;;;;;6.18;3.40;;;;;;;13.97;77.59;101486.81;5006073;28;20034;-40
2023/01/04 04:28:48;;;;;;;5.40;2.88;;;;;;;13.63;78.27;101482.13;5001762;28;20046;-43
2023/01/04 04:31:13;;;;;;;5.95;2.95;;;;;;;13.66;78.19;101469.06;5005109;28;20045;-40
2023/01/04 04:33:39;;;;;;;6.20;2.75;;;;;;;14.03;76.87;101486.00;5001485;28;20087;-40
2023/01/04 04:36:05;;;;;;;5.53;2.75;;;;;;;13.86;77.85;101477.13;5005544;28;20038;-40
2023/01/04 04:38:30;;;;;;;8.02;2.83;;;;;;;14.04;77.42;101472.03;5003102;28;20037;-53
2023/01/04 04:43:39;;;;;;;5.30;2.53;;;;;;;14.03;77.49;101473.78;5001805;28;20040;-39
2023/01/04 04:46:05;;;;;;;7.40;2.55;;;;;;;13.99;78.47;101458.00;5005610;28;20132;-42
2023/01/04 04:48:30;;;;;;;6.75;2.80;;;;;;;13.84;79.02;101464.00;5004453;28;20084;-52
2023/01/04 04:50:56;;;;;;;4.50;2.42;;;;;;;13.73;79.87;101466.50;5002031;28;20044;-41
2023/01/04 04:53:21;;;;;;;5.00;2.60;;;;;;;13.96;79.64;101465.88;5006219;28;20091;-45
2023/01/04 04:55:52;;;;;;;5.40;2.30;;;;;;;13.82;79.65;101465.72;5001535;28;20038;-44
2023/01/04 04:58:19;;;;;;;4.18;2.17;;;;;;;13.80;80.32;101455.22;5005330;28;20037;-40
2023/01/04 05:00:44;;;;;;;4.70;2.08;;;;;;;13.79;80.79;101448.22;5000595;28;20038;-41
2023/01/04 05:03:09;;;;;;;3.60;2.20;;;;;;;13.90;80.31;101450.97;5005285;28;20091;-38
2023/01/04 05:05:34;;;;;;;4.05;2.25;;;;;;;14.08;79.21;101442.38;5001540;28;20439;-38
2023/01/04 05:08:00;;;;;;;5.60;2.42;;;;;;;13.92;79.42;101443.09;5005646;28;20042;-42
2023/01/04 05:10:25;;;;;;;4.75;2.50;;;;;;;13.57;80.46;101443.66;5004541;28;20045;-38
2023/01/04 05:12:59;;;;;;;3.33;2.65;;;;;;;13.96;80.27;101426.53;5001155;28;20046;-39
2023/01/04 05:15:31;;;;;;;4.68;2.83;;;;;;;14.23;79.00;101426.75;5005375;28;20038;-41
2023/01/04 05:17:56;;;;;;;4.18;2.97;;;;;;;13.77;80.29;101433.38;5001087;28;20050;-38
2023/01/04 05:20:21;;;;;;;4.88;2.85;;;;;;;13.99;79.57;101405.59;5003942;28;20073;-36
2023/01/04 05:22:47;;;;;;;4.40;3.00;;;;;;;14.02;79.05;101431.84;5000703;28;20506;-40
2023/01/04 05:25:12;;;;;;;4.35;3.45;;;;;;;13.87;80.17;101415.97;5005525;28;20034;-39
2023/01/04 05:27:38;;;;;;;4.57;3.70;;;;;;;14.15;78.83;101418.81;5001564;28;20133;-39
2023/01/04 05:32:48;;;;;;;6.43;4.10;;;;;;;13.96;80.10;101395.97;5001359;28;20061;-37
2023/01/04 05:35:14;;;;;;;4.85;3.97;;;;;;;13.67;80.97;101395.69;5005716;28;20494;-40
2023/01/04 05:37:39;;;;;;;3.95;3.33;;;;;;;13.95;79.86;101406.44;5002213;28;20037;-38
2023/01/04 05:40:04;;;;;;;4.10;3.60;;;;;;;13.59;81.24;101394.78;5006381;28;20457;-38
2023/01/04 05:42:30;;;;;;;5.40;3.67;;;;;;;14.06;79.35;101382.06;5005970;28;20125;-44
2023/01/04 05:44:57;;;;;;;5.07;3.90;;;;;;;13.84;80.75;101410.72;5002032;28;20457;-40
2023/01/04 05:47:23;;;;;;;5.32;3.80;;;;;;;14.07;80.11;101393.41;5004841;28;20380;-39
2023/01/04 05:49:49;;;;;;;5.28;3.90;;;;;;;13.91;80.42;101396.78;5000839;28;20022;-42
2023/01/04 05:52:14;;;;;;;6.75;4.10;;;;;;;14.11;79.42;101395.19;5004637;28;20064;-38
2023/01/04 05:54:39;;;;;;;4.53;3.90;;;;;;;13.58;81.06;101392.13;5000865;28;20077;-40
2023/01/04 05:57:05;;;;;;;6.03;3.70;;;;;;;13.96;79.86;101406.47;5004502;28;20443;-46
2023/01/04 05:59:30;;;;;;;6.70;3.80;;;;;;;14.13;79.18;101425.81;5002564;28;20046;-54
2023/01/04 06:01:56;;;;;;;5.90;3.40;;;;;;;13.95;79.52;101414.31;5003567;28;20125;-38
2023/01/04 06:04:21;;;;;;;5.88;3.30;;;;;;;14.18;79.00;101413.59;5005667;28;20050;-40
2023/01/04 06:06:46;;;;;;;5.05;3.20;;;;;;;13.98;79.73;101419.56;5000718;28;20410;-40
2023/01/04 06:09:12;;;;;;;5.93;3.20;;;;;;;13.89;79.82;101424.72;5003505;28;20394;-40
2023/01/04 06:11:37;;;;;;;4.60;2.90;;;;;;;14.17;78.68;101406.59;4999803;28;20174;-43
2023/01/04 06:14:02;;;;;;;7.45;3.22;;;;;;;14.11;78.77;101417.03;5003655;28;20033;-39
2023/01/04 06:16:28;;;;;;;5.40;2.70;;;;;;;14.57;77.50;101402.53;5003362;28;20415;-42
2023/01/04 06:18:53;;;;;;;6.57;2.70;;;;;;;14.02;78.84;101414.38;5000026;28;20518;-40
2023/01/04 06:21:19;;;;;;;5.70;2.60;;;;;;;14.29;78.90;101397.94;5002830;28;20509;-42
2023/01/04 06:23:44;;;;;;;4.03;2.40;;;;;;;13.65;80.36;101404.44;4999855;28;20034;-45
2023/01/04 06:26:09;;;;;;;7.50;2.38;;;;;;;14.28;78.93;101400.53;5003488;28;20038;-43
2023/01/04 06:28:35;;;;;;;6.65;2.63;;;;;;;14.20;78.74;101406.63;4999958;28;20080;-40
2023/01/04 06:31:08;;;;;;;4.97;2.30;;;;;;;14.35;78.56;101390.09;5002928;28;20129;-39
2023/01/04 06:33:33;;;;;;;8.52;2.47;;;;;;;14.16;79.42;101393.47;4999740;28;20418;-40
2023/01/04 06:35:59;;;;;;;5.95;2.40;;;;;;;14.30;78.87;101397.06;5003489;28;20041;-40
2023/01/04 06:38:25;;;;;;;7.15;2.45;;;;;;;13.93;79.29;101374.97;5003089;28;20507;-40
2023/01/04 06:40:50;;;;;;;6.78;2.50;;;;;;;14.17;78.69;101400.47;4998346;28;20045;-39
2023/01/04 06:43:16;;;;;;;7.40;2.80;;;;;;;14.20;78.81;101383.03;5003415;28;20080;-38
2023/01/04 06:45:41;;;;;;;8.35;2.70;;;;;;;14.36;78.84;101376.13;4998476;28;20061;-42
2023/01/04 06:48:07;;;;;;;8.18;3.05;;;;;;;14.07;79.53;101367.19;5003574;28;20034;-39
2023/01/04 06:50:32;;;;;;;6.00;2.90;;;;;;;14.17;79.34;101377.75;4999088;28;20037;-38
2023/01/04 06:52:58;;;;;;;7.40;3.10;;;;;;;14.35;78.81;101390.09;5003376;28;20038;-40
2023/01/04 06:55:23;;;;;;;6.93;2.80;;;;;;;14.04;79.90;101389.03;5002562;28;20048;-42
2023/01/04 06:57:49;;;;;;;7.82;2.78;;;;;;;14.07;80.09;101369.81;4999220;28;20041;-39
2023/01/04 07:00:14;;;;;;;8.05;2.78;;;;;;;14.37;78.61;101383.16;5002684;28;20069;-40
2023/01/04 07:02:40;;;;;;;8.88;2.70;;;;;;;14.13;79.41;101376.00;4998757;28;20292;-39
2023/01/04 07:05:05;;;;;;;10.20;2.72;;;;;;;14.26;79.24;101374.34;5003014;28;20041;-39
2023/01/04 07:07:32;;;;;;;9.85;2.95;;;;;;;14.18;79.94;101392.63;4999913;28;20029;-48
2023/01/04 07:09:57;;;;;;;13.63;2.97;;;;;;;14.45;78.78;101368.38;5002479;28;20053;-39
2023/01/04 07:12:24;;;;;;;12.60;2.78;;;;;;;14.28;79.29;101367.31;5001845;28;20034;-39
2023/01/04 07:14:49;;;;;;;10.48;2.80;;;;;;;14.09;79.96;101361.09;4999123;28;20150;-41
2023/01/04 07:17:14;;;;;;;7.38;2.70;;;;;;;14.10;80.90;101359.34;5003176;28;20045;-40
2023/01/04 07:19:40;;;;;;;9.65;2.90;;;;;;;14.23;79.99;101359.44;4998814;28;20124;-39
2023/01/04 07:22:05;;;;;;;10.90;3.22;;;;;;;14.27;79.93;101348.97;5001736;28;20034;-37
2023/01/04 07:24:30;;;;;;;6.85;2.33;;;;;;;14.36;79.50;101367.38;5002687;28;20441;-38
2023/01/04 07:26:57;;;;;;;9.35;2.53;;;;;;;14.15;79.85;101358.50;4999499;28;20038;-43
2023/01/04 07:29:23;;;;;;;7.55;2.42;;;;;;;14.12;80.60;101349.75;5002720;28;20034;-38
2023/01/04 07:31:51;;;;;;;7.60;2.30;;;;;;;14.20;80.29;101338.47;4998184;28;20060;-42
2023/01/04 07:34:18;;;;;;;10.35;2.53;;;;;;;14.28;79.57;101354.22;5002306;28;20041;-42
2023/01/04 07:36:43;;;;;;;10.98;2.45;;;;;;;14.46;78.89;101356.97;4998931;28;20026;-38
2023/01/04 07:39:10;;;;;;;9.32;2.30;;;;;;;14.34;79.81;101350.75;5002308;28;20030;-40
2023/01/04 07:41:37;;;;;;;7.25;2.50;;;;;;;14.30;80.11;101351.59;4998506;28;20037;-37
2023/01/04 07:44:03;;;;;;;8.35;2.38;;;;;;;13.93;81.08;101358.34;5002714;28;20030;-38
2023/01/04 07:46:28;;;;;;;7.28;2.30;;;;;;;14.09;81.14;101358.47;5002536;28;20391;-38
2023/01/04 07:48:54;;;;;;;8.02;2.10;;;;;;;14.22;80.50;101348.94;4999113;28;20041;-38
2023/01/04 07:51:19;;;;;;;6.43;1.90;;;;;;;14.16;81.78;101354.13;5001828;28;20088;-41
2023/01/04 07:53:44;;;;;;;7.88;1.75;;;;;;;13.97;81.94;101333.91;4998079;28;20073;-39
2023/01/04 07:56:10;;;;;;;5.15;1.80;;;;;;;14.26;80.90;101355.97;5003947;28;20502;-40
2023/01/04 07:58:35;;;;;;;7.82;1.75;;;;;;;14.28;80.82;101350.72;5002568;28;20040;-38
2023/01/04 08:01:11;;;;;;;7.05;1.92;;;;;;;13.84;82.13;101348.69;5005359;28;20030;-42
2023/01/04 08:03:36;;;;;;;7.72;2.13;;;;;;;13.95;82.07;101328.69;5003093;28;20490;-39
2023/01/04 08:06:10;;;;;;;10.85;2.40;;;;;;;14.08;82.69;101355.84;5006790;28;20045;-38
2023/01/04 08:08:35;;;;;;;11.73;2.42;;;;;;;13.96;82.06;101338.31;5002812;28;20037;-38
2023/01/04 08:11:09;;;;;;;11.15;2.58;;;;;;;14.28;80.74;101367.31;5007364;28;20121;-37
2023/01/04 08:13:35;;;;;;;11.13;2.75;;;;;;;14.25;81.68;101345.47;5004865;28;20033;-39
2023/01/04 08:16:00;;;;;;;16.35;2.95;;;;;;;14.34;80.51;101358.63;5007274;28;20045;-38
2023/01/04 08:18:25;;;;;;;13.95;2.38;;;;;;;14.25;80.58;101363.81;5008332;28;20137;-38
2023/01/04 08:21:03;;;;;;;12.68;2.25;;;;;;;13.84;83.55;101367.03;5001650;28;20499;-41
2023/01/04 08:23:28;;;;;;;7.78;1.88;;;;;;;13.91;82.61;101376.69;5006398;28;20036;-38
2023/01/04 08:25:54;;;;;;;12.40;2.15;;;;;;;14.24;81.63;101357.69;5002385;28;20038;-38
2023/01/04 08:28:19;;;;;;;8.48;1.88;;;;;;;14.05;82.59;101384.66;5007138;28;20045;-40
2023/01/04 08:30:44;;;;;;;9.82;2.30;;;;;;;14.28;81.39;101361.19;5003501;28;20061;-39
2023/01/04 08:33:14;;;;;;;12.27;2.40;;;;;;;14.12;82.15;101389.09;5007703;28;20502;-39
2023/01/04 08:35:39;;;;;;;13.82;2.65;;;;;;;14.01;82.46;101375.91;5004234;28;20044;-42
2023/01/04 08:38:05;;;;;;;18.05;2.75;;;;;;;14.09;82.26;101387.31;5007226;28;20030;-39
2023/01/04 08:40:30;;;;;;;15.70;2.63;;;;;;;14.06;82.17;101362.81;5007606;28;20065;-38
2023/01/04 08:42:55;;;;;;;16.80;3.33;;;;;;;14.11;82.22;101390.81;5008609;28;20030;-41
2023/01/04 08:45:21;;;;;;;16.85;3.25;;;;;;;14.28;81.49;101387.44;5013372;28;20033;-38
2023/01/04 08:47:46;;;;;;;17.50;2.70;;;;;;;14.40;80.78;101385.78;5007071;28;20388;-46
2023/01/04 08:50:13;;;;;;;19.70;2.92;;;;;;;13.96;83.06;101398.59;5008413;28;20406;-40
2023/01/04 08:52:38;;;;;;;15.75;2.85;;;;;;;13.98;82.43;101394.22;5003380;28;20083;-43
2023/01/04 08:55:04;;;;;;;17.85;2.88;;;;;;;13.81;83.79;101401.06;5006392;28;20137;-40
2023/01/04 08:57:29;;;;;;;17.55;2.70;;;;;;;14.13;81.86;101401.34;5005559;28;20046;-39
2023/01/04 08:59:55;;;;;;;13.50;2.42;;;;;;;14.19;82.36;101406.63;5002523;28;20703;-41
2023/01/04 09:02:22;;;;;;;12.52;2.50;;;;;;;14.27;81.53;101414.56;5003373;28;20088;-40
2023/01/04 09:04:48;;;;;;;16.45;2.90;;;;;;;14.21;81.84;101412.72;5002690;28;20044;-40
2023/01/04 09:07:15;;;;;;;10.40;2.58;;;;;;;14.17;82.19;101400.47;5005231;28;20041;-40
2023/01/04 09:09:41;;;;;;;11.63;1.98;;;;;;;13.98;82.46;101419.56;5001703;28;20450;-39
2023/01/04 09:12:06;;;;;;;14.85;2.40;;;;;;;14.19;81.99;101410.13;5005240;28;20057;-39
2023/01/04 09:14:31;;;;;;;15.30;2.55;;;;;;;14.01;82.46;101409.09;5005014;28;20066;-39
2023/01/04 09:17:06;;;;;;;13.38;2.45;;;;;;;14.38;81.38;101412.91;5001795;28;20045;-44
2023/01/04 09:19:31;;;;;;;15.75;2.58;;;;;;;14.61;80.12;101417.41;5001534;28;20042;-36
2023/01/04 09:21:57;;;;;;;16.80;2.58;;;;;;;14.06;81.75;101428.38;5004335;28;20029;-41
2023/01/04 09:24:22;;;;;;;12.73;2.10;;;;;;;14.05;82.10;101421.38;5004725;28;20061;-39
2023/01/04 09:26:48;;;;;;;14.32;2.70;;;;;;;14.18;81.60;101441.56;5001288;28;20064;-39
2023/01/04 09:29:13;;;;;;;13.05;2.13;;;;;;;14.27;81.58;101417.19;5005418;28;20030;-40
2023/01/04 09:31:38;;;;;;;13.00;2.53;;;;;;;14.23;81.83;101447.72;5001441;28;20447;-44
2023/01/04 09:34:04;;;;;;;14.75;2.65;;;;;;;14.18;81.54;101429.34;5005169;28;20042;-41
2023/01/04 09:36:29;;;;;;;12.25;2.47;;;;;;;14.22;81.76;101431.09;5005452;28;20122;-40
2023/01/04 09:38:55;;;;;;;13.73;2.72;;;;;;;14.20;81.94;101438.09;5001212;28;20087;-39
2023/01/04 09:41:29;;;;;;;16.70;3.08;;;;;;;14.50;80.15;101433.97;5004559;28;20521;-39
2023/01/04 09:44:02;;;;;;;18.40;3.22;;;;;;;14.29;80.94;101429.41;5001057;28;20037;-40
2023/01/04 09:46:38;;;;;;;21.20;3.78;;;;;;;14.03;82.24;101431.81;5004925;28;20037;-42
2023/01/04 09:49:18;;;;;;;20.25;3.65;;;;;;;13.97;82.15;101442.25;5000392;28;20403;-39
2023/01/04 09:51:56;;;;;;;14.32;3.20;;;;;;;14.04;81.56;101453.69;4999209;28;20034;-43
2023/01/04 09:54:27;;;;;;;20.42;3.28;;;;;;;14.05;81.75;101443.22;5004734;28;20065;-45
2023/01/04 09:56:57;;;;;;;15.38;3.20;;;;;;;13.87;82.18;101452.66;5000479;28;20041;-39
2023/01/04 09:59:31;;;;;;;17.30;3.08;;;;;;;13.79;82.35;101458.72;5004122;28;20474;-41
2023/01/04 10:02:14;;;;;;;18.52;3.20;;;;;;;14.15;81.72;101438.91;4998748;28;20084;-39
2023/01/04 10:04:45;;;;;;;22.27;3.20;;;;;;;14.09;81.54;101449.34;5000219;28;20029;-39
2023/01/04 10:07:17;;;;;;;19.05;3.05;;;;;;;14.23;80.93;101432.88;5003732;28;20034;-42
2023/01/04 10:09:42;;;;;;;13.95;2.83;;;;;;;14.03;82.46;101423.09;5000444;28;20376;-39
2023/01/04 10:12:17;;;;;;;14.73;2.50;;;;;;;14.37;80.52;101440.88;5003489;28;20041;-40
2023/01/04 10:15:03;;;;;;;9.77;2.40;;;;;;;14.18;81.53;101423.22;5000094;28;20042;-39
2023/01/04 10:17:53;;;;;;;14.85;2.50;;;;;;;14.11;82.39;101424.03;5003426;28;20080;-39
2023/01/04 10:20:37;;;;;;;14.38;2.47;;;;;;;13.90;82.50;101439.59;4998624;28;20049;-40
2023/01/04 10:23:13;;;;;;;13.65;2.38;;;;;;;14.04;82.83;101437.94;5000228;28;20038;-40
2023/01/04 10:25:54;;;;;;;8.77;1.85;;;;;;;14.29;81.38;101421.53;5000197;28;20042;-39
2023/01/04 10:28:26;;;;;;;11.82;2.30;;;;;;;14.35;81.14;101434.69;5002683;28;20026;-40
2023/01/04 10:31:00;;;;;;;9.38;2.00;;;;;;;14.45;81.13;101415.59;4999644;28;20137;-40
2023/01/04 10:33:45;;;;;;;8.48;1.70;;;;;;;14.06;81.73;101450.22;5003791;28;20042;-38
2023/01/04 10:36:20;;;;;;;14.50;2.20;;;;;;;14.30;82.02;101419.81;5000024;28;20037;-39
2023/01/04 10:38:54;;;;;;;8.65;1.70;;;;;;;14.12;82.13;101437.16;4999294;28;20329;-42
2023/01/04 10:41:23;;;;;;;10.73;1.73;;;;;;;14.10;82.49;101449.38;5003081;28;20042;-38
2023/01/04 10:44:40;;;;;;;11.57;2.20;;;;;;;13.98;82.55;101430.91;5001278;28;20564;-38
2023/01/04 10:47:19;;;;;;;9.13;2.13;;;;;;;14.26;82.00;101425.91;4979287;28;20038;-39
2023/01/04 10:49:57;;;;;;;10.15;2.03;;;;;;;14.17;81.18;101443.31;5000856;28;20058;-39
2023/01/04 10:52:41;;;;;;;9.27;1.90;;;;;;;14.28;81.35;101416.28;5003763;28;20038;-42
2023/01/04 10:55:30;;;;;;;9.63;1.85;;;;;;;14.22;81.53;101402.25;4999696;28;20038;-38
2023/01/04 10:58:03;;;;;;;7.97;1.80;;;;;;;14.53;81.63;101400.75;5000890;28;20034;-43
2023/01/04 11:00:44;;;;;;;12.98;1.85;;;;;;;14.25;81.88;101392.66;5002796;28;20046;-42
2023/01/04 11:03:19;;;;;;;11.40;1.98;;;;;;;14.23;81.58;101408.38;4999383;28;20033;-45
2023/01/04 11:06:23;;;;;;;9.75;1.90;;;;;;;14.37;81.41;101390.13;4999378;28;20033;-39
2023/01/04 11:08:57;;;;;;;10.05;1.50;;;;;;;14.44;80.75;101384.09;4995817;28;20246;-42
2023/01/04 11:11:37;;;;;;;12.25;1.83;;;;;;;14.92;79.20;101372.94;5004673;28;20041;-40
2023/01/04 11:14:03;;;;;;;7.38;1.45;;;;;;;14.67;79.81;101385.06;4999696;28;20034;-40
2023/01/04 11:16:28;;;;;;;9.70;1.45;;;;;;;14.63;79.64;101374.56;5003122;28;20038;-42
2023/01/04 11:18:54;;;;;;;9.07;1.50;;;;;;;14.61;79.33;101367.56;4998447;28;20115;-39
2023/01/04 11:21:27;;;;;;;10.23;2.17;;;;;;;14.49;79.32;101374.50;5002530;28;20510;-41
2023/01/04 11:23:58;;;;;;;4.78;1.30;;;;;;;14.48;79.45;101380.59;4999940;28;20038;-42
2023/01/04 11:26:30;;;;;;;8.55;1.55;;;;;;;14.80;79.38;101384.25;5004729;28;20037;-40
2023/01/04 11:29:01;;;;;;;9.80;1.73;;;;;;;14.26;80.17;101402.31;5001314;28;20402;-38
2023/01/04 11:31:46;;;;;;;10.85;1.67;;;;;;;14.66;79.10;101380.69;5006647;28;20076;-38
2023/01/04 11:34:12;;;;;;;8.07;1.65;;;;;;;14.70;78.40;101399.97;5006731;28;20038;-38
2023/01/04 11:36:46;;;;;;;9.52;1.80;;;;;;;14.70;78.70;101385.06;5004062;28;20045;-40
2023/01/04 11:39:21;;;;;;;8.80;1.70;;;;;;;14.63;78.73;101398.19;5006528;28;20057;-43
2023/01/04 11:41:59;;;;;;;10.98;1.98;;;;;;;15.04;77.03;101409.75;4991720;28;20074;-38
2023/01/04 11:44:25;;;;;;;12.82;2.20;;;;;;;14.79;77.87;101389.50;5006644;28;20042;-39
2023/01/04 11:47:18;;;;;;;14.00;2.25;;;;;;;14.68;77.77;101391.19;5002762;28;20123;-42
2023/01/04 11:49:43;;;;;;;13.57;2.40;;;;;;;14.95;77.59;101379.06;5002323;28;20449;-40
2023/01/04 11:52:27;;;;;;;10.13;2.00;;;;;;;14.44;78.75;101366.59;5006878;28;20034;-40
2023/01/04 11:54:53;;;;;;;9.18;1.60;;;;;;;15.14;76.56;101374.75;5003106;28;20125;-41
2023/01/04 11:57:19;;;;;;;11.48;2.00;;;;;;;14.78;77.50;101388.63;5006597;28;20125;-40
2023/01/04 11:59:45;;;;;;;10.35;1.90;;;;;;;14.77;78.00;101370.22;5002663;28;20108;-40
2023/01/04 12:02:24;;;;;;;9.60;2.20;;;;;;;14.87;77.09;101370.31;5005994;28;20061;-39
2023/01/04 12:04:51;;;;;;;13.68;2.20;;;;;;;15.01;76.72;101368.56;5002878;28;20038;-40
2023/01/04 12:07:34;;;;;;;11.07;1.92;;;;;;;14.99;76.71;101375.59;5005913;28;20034;-43
2023/01/04 12:10:20;;;;;;;12.98;2.03;;;;;;;15.21;76.25;101346.75;5003031;28;20037;-41
2023/01/04 12:12:45;;;;;;;11.60;1.98;;;;;;;15.12;75.83;101371.25;5001854;28;20470;-41
2023/01/04 12:15:22;;;;;;;12.63;2.10;;;;;;;15.00;75.89;101364.19;5006220;28;20081;-38
2023/01/04 12:18:09;;;;;;;10.68;1.85;;;;;;;15.09;75.56;101367.72;5002377;28;20041;-39
2023/01/04 12:20:35;;;;;;;11.45;1.83;;;;;;;15.15;74.93;101358.13;5002222;28;20049;-38